Bookmark and Share
Track history (hours):
 

MSC Mandraki

Last reported at 2014-Apr-05 01:23 UTC. Time now 2014-Apr-19 17:18 UTC.
Position N 35°57' W 005°42'.
Warning: this ship's position is 14 days out of date.

Length 294 m; draft 13.4 m.

Type: Ship (hazmat cat A). MMSI: 240265000.

NotesDate/timePositionNaut miles runAvg speedWind from/ knotsBaromVisibWave heightAir tempDewpointWater temp
2014-Apr-05 01:23N 35°57' W 005°42'1315.2
2014-Apr-05 00:33N 35°59' W 005°27'1313.3
2014-Apr-04 23:34N 36°01' W 005°11'23915.9
2014-Apr-04 08:29N 37°33' W 000°35'1516.6
2014-Apr-04 07:33N 37°45' W 000°23'1717.1
2014-Apr-04 06:33N 38°00' W 000°12'100 2.3
2014-Apr-02 11:33N 39°20' E 001°05'1616.5
2014-Apr-02 10:33N 39°19' E 001°26'1616.4
2014-Apr-02 09:33N 39°16' E 001°47'1716.6
2014-Apr-02 08:33N 39°09' E 002°06'1616.5
2014-Apr-02 07:34N 39°02' E 002°25'1716.5
2014-Apr-02 06:33N 38°55' E 002°45'1616.1
2014-Apr-02 05:33N 38°52' E 003°05'1616.3
2014-Apr-02 04:33N 38°51' E 003°26'1616.0
2014-Apr-02 03:34N 38°50' E 003°46'1716.5
2014-Apr-02 02:31N 38°49' E 004°08'1817.0
2014-Apr-02 01:27N 38°48' E 004°32'1415.8
2014-Apr-02 00:33N 38°48' E 004°50'1716.9
2014-Apr-01 23:33N 38°47' E 005°11'1716.2
2014-Apr-01 22:29N 38°46' E 005°33'3216.7
2014-Apr-01 20:33N 38°44' E 006°15'1816.8
2014-Apr-01 19:29N 38°43' E 006°38'2116.2
2014-Apr-01 18:10N 38°43' E 007°05'1317.6
2014-Apr-01 17:25N 38°42' E 007°22'1517.0
2014-Apr-01 16:30N 38°41' E 007°42'2417.4
2014-Apr-01 15:06N 38°40' E 008°13'2917.3
2014-Apr-01 13:27N 38°38' E 008°50'2317.5
2014-Apr-01 12:09N 38°37' E 009°19'1317.3
2014-Apr-01 11:25N 38°36' E 009°35'227 4.5
2014-Mar-30 08:33N 39°39' E 014°16'3516.4
2014-Mar-30 06:26N 40°04' E 013°43'1416.3
2014-Mar-30 05:33N 40°14' E 013°30'1616.2
2014-Mar-30 04:33N 40°25' E 013°14'1616.3
2014-Mar-30 03:33N 40°36' E 012°59'  
2014-Mar-27 19:32N 38°53' E 009°37'1716.9
2014-Mar-27 18:33N 38°49' E 009°16'1717.3
2014-Mar-27 17:33N 38°44' E 008°55'1816.7
2014-Mar-27 16:27N 38°40' E 008°32'1715.8
2014-Mar-27 15:23N 38°35' E 008°12'  

Dump ship's entire track history

sailing weather and tide predictions

MSC Mandraki — SZUH — position and weather